Time;durP1;ratioP1;P1;durP2;ratioP2;P2;SDS_P1;SDS_P2;PMS_P1;PMS_P2;Temp;Humidity;BMP_temperature;BMP_pressure;BME280_temperature;BME280_humidity;BME280_pressure;Samples;Min_cycle;Max_cycle;Signal;HPM_P1;HPM_P2
2022/07/15 00:00:11;;;;;;;9.57;3.10;;;;;;;17.79;63.15;102139.63;4973402;28;20045;-51
2022/07/15 00:02:38;;;;;;;10.38;3.08;;;;;;;17.79;63.27;102139.63;4976777;28;20047;-50
2022/07/15 00:05:07;;;;;;;9.95;3.10;;;;;;;17.78;63.31;102146.28;4974119;28;20055;-50
2022/07/15 00:07:36;;;;;;;10.63;3.08;;;;;;;17.75;64.07;102140.47;4947081;29;20039;-49
2022/07/15 00:10:21;;;;;;;14.25;3.35;;;;;;;17.68;63.91;102147.16;4953778;28;20109;-49
2022/07/15 00:12:49;;;;;;;9.98;3.10;;;;;;;17.60;64.50;102138.63;4957077;28;20050;-52
2022/07/15 00:15:23;;;;;;;9.10;3.13;;;;;;;17.55;64.73;102133.97;4965090;28;20035;-53
2022/07/15 00:17:51;;;;;;;13.77;3.20;;;;;;;17.51;65.20;102140.31;4963339;28;20119;-51
2022/07/15 00:20:20;;;;;;;8.57;3.10;;;;;;;17.50;65.10;102141.44;4969981;28;20039;-51
2022/07/15 00:22:48;;;;;;;13.88;3.28;;;;;;;17.49;65.44;102137.06;4976825;28;20054;-50
2022/07/15 00:25:16;;;;;;;14.98;3.92;;;;;;;17.44;65.58;102141.47;4965991;28;20502;-51
2022/07/15 00:27:58;;;;;;;13.70;3.30;;;;;;;17.39;65.63;102140.66;4974956;28;20485;-50
2022/07/15 00:30:35;;;;;;;11.27;3.78;;;;;;;17.29;66.37;102138.75;4959109;28;20049;-48
2022/07/15 00:33:03;;;;;;;11.50;3.65;;;;;;;17.27;66.57;102141.00;4976314;28;20050;-50
2022/07/15 00:35:32;;;;;;;11.00;3.17;;;;;;;17.23;66.92;102140.72;4968154;28;20058;-50
2022/07/15 00:38:00;;;;;;;8.02;3.40;;;;;;;17.22;67.02;102143.75;4954782;29;20039;-53
2022/07/15 00:40:28;;;;;;;12.63;3.65;;;;;;;17.22;67.15;102138.25;4950651;28;20051;-50
2022/07/15 00:42:56;;;;;;;12.90;3.60;;;;;;;17.18;67.33;102138.00;4976490;28;20090;-52
2022/07/15 00:45:25;;;;;;;10.60;3.70;;;;;;;17.14;67.38;102130.56;4968719;28;20043;-53
2022/07/15 00:47:55;;;;;;;11.68;3.70;;;;;;;17.15;67.54;102127.53;4976080;28;20039;-52
2022/07/15 00:50:25;;;;;;;14.13;4.03;;;;;;;17.16;67.54;102131.94;4976265;28;20109;-50
2022/07/15 00:53:07;;;;;;;10.82;3.30;;;;;;;17.16;67.72;102128.34;4959401;28;20050;-51
2022/07/15 00:55:43;;;;;;;12.43;3.63;;;;;;;17.14;67.48;102131.38;4975016;28;20046;-52
2022/07/15 00:58:23;;;;;;;13.20;3.90;;;;;;;17.13;67.52;102134.44;4974665;28;20043;-51
2022/07/15 01:00:52;;;;;;;11.52;3.33;;;;;;;17.12;67.77;102133.59;4959189;28;20046;-51
2022/07/15 01:03:20;;;;;;;13.57;3.75;;;;;;;17.11;67.64;102133.88;4958135;28;20134;-50
2022/07/15 01:05:48;;;;;;;11.45;3.50;;;;;;;17.09;67.88;102136.09;4953141;29;20051;-49
2022/07/15 01:08:19;;;;;;;10.63;3.33;;;;;;;17.08;67.68;102139.94;4953471;28;20042;-51
2022/07/15 01:10:51;;;;;;;10.90;3.38;;;;;;;17.03;68.02;102124.28;4958772;28;20046;-53
2022/07/15 01:13:20;;;;;;;12.60;3.80;;;;;;;16.99;67.87;102132.25;4934421;28;20078;-52
2022/07/15 01:15:49;;;;;;;11.20;3.53;;;;;;;16.90;68.26;102131.16;4955277;28;20133;-52
2022/07/15 01:18:18;;;;;;;11.15;3.90;;;;;;;16.81;68.83;102138.34;4949288;28;20117;-51
2022/07/15 01:20:46;;;;;;;10.65;3.80;;;;;;;16.75;68.94;102133.94;4958361;28;20051;-51
2022/07/15 01:23:16;;;;;;;8.90;3.25;;;;;;;16.71;69.11;102135.56;4941756;28;20074;-50
2022/07/15 01:25:49;;;;;;;13.30;3.72;;;;;;;16.65;69.83;102136.72;4955592;28;20039;-49
2022/07/15 01:28:16;;;;;;;9.85;3.47;;;;;;;16.62;69.95;102135.34;4948442;28;20549;-52
2022/07/15 01:30:44;;;;;;;13.48;3.60;;;;;;;16.65;69.60;102139.47;4975593;28;20135;-52
2022/07/15 01:33:15;;;;;;;9.60;3.33;;;;;;;16.69;69.54;102135.03;4953780;28;20130;-54
2022/07/15 01:35:42;;;;;;;11.77;3.92;;;;;;;16.68;69.65;102147.16;4935664;29;20059;-53
2022/07/15 01:38:10;;;;;;;14.18;3.80;;;;;;;16.68;69.35;102139.72;4958112;28;20402;-51
2022/07/15 01:40:39;;;;;;;12.75;4.03;;;;;;;16.66;69.75;102141.91;4958164;28;20042;-53
2022/07/15 01:43:07;;;;;;;11.30;3.72;;;;;;;16.68;69.62;102145.22;4957851;28;20066;-53
2022/07/15 01:45:35;;;;;;;12.30;3.85;;;;;;;16.69;69.57;102140.53;4951660;28;20118;-50
2022/07/15 01:48:04;;;;;;;11.18;3.40;;;;;;;16.69;69.23;102146.88;4938836;28;20034;-53
2022/07/15 01:50:49;;;;;;;10.55;3.75;;;;;;;16.67;69.51;102145.47;4956645;28;20049;-52
2022/07/15 01:53:19;;;;;;;9.05;3.40;;;;;;;16.69;69.18;102143.28;4957710;28;20042;-51
2022/07/15 01:55:49;;;;;;;9.25;3.60;;;;;;;16.70;69.35;102151.28;4957890;28;20409;-50
2022/07/15 01:58:16;;;;;;;11.98;3.67;;;;;;;16.68;69.53;102160.91;4952953;29;20049;-53
2022/07/15 02:00:47;;;;;;;10.85;3.60;;;;;;;16.62;69.33;102154.59;4947714;28;20096;-51
2022/07/15 02:03:15;;;;;;;15.05;4.00;;;;;;;16.57;69.77;102144.41;4952671;28;20130;-49
2022/07/15 02:05:42;;;;;;;9.77;3.20;;;;;;;16.55;69.81;102152.13;4938654;29;20043;-51
2022/07/15 02:08:11;;;;;;;11.65;3.67;;;;;;;16.51;70.13;102153.75;4955203;28;20043;-51
2022/07/15 02:10:43;;;;;;;9.60;3.30;;;;;;;16.46;70.11;102150.19;4952844;28;20058;-50
2022/07/15 02:13:16;;;;;;;10.18;3.45;;;;;;;16.46;70.26;102152.94;4953905;28;20070;-50
2022/07/15 02:15:50;;;;;;;13.70;4.03;;;;;;;16.47;70.35;102154.59;4957513;28;20046;-54
2022/07/15 02:18:18;;;;;;;11.55;3.60;;;;;;;16.47;70.32;102149.91;4956714;28;20047;-52
2022/07/15 02:20:46;;;;;;;11.45;3.67;;;;;;;16.49;70.25;102152.38;4941043;28;20038;-54
2022/07/15 02:23:14;;;;;;;14.00;3.60;;;;;;;16.46;70.01;102147.44;4974866;28;20047;-53
2022/07/15 02:25:41;;;;;;;11.13;3.28;;;;;;;16.44;69.96;102150.47;4971106;28;20051;-53
2022/07/15 02:28:09;;;;;;;11.55;3.38;;;;;;;16.42;70.28;102149.91;4940079;28;20150;-52
2022/07/15 02:30:39;;;;;;;12.95;4.35;;;;;;;16.40;70.21;102149.34;4950099;28;20118;-55
2022/07/15 02:33:08;;;;;;;10.68;3.60;;;;;;;16.33;70.99;102148.78;4957480;28;20097;-54
2022/07/15 02:35:37;;;;;;;12.15;3.42;;;;;;;16.29;71.06;102147.72;4938425;28;20051;-55
2022/07/15 02:38:06;;;;;;;11.68;3.72;;;;;;;16.26;71.21;102145.50;4965876;28;20047;-54
2022/07/15 02:40:33;;;;;;;12.60;3.47;;;;;;;16.22;71.19;102152.66;4938151;29;20126;-55
2022/07/15 02:43:09;;;;;;;9.23;3.30;;;;;;;16.19;71.60;102148.53;4958677;28;20047;-54
2022/07/15 02:45:38;;;;;;;13.88;3.65;;;;;;;16.20;71.30;102150.16;4955105;28;20035;-54
2022/07/15 02:48:09;;;;;;;20.10;4.07;;;;;;;16.23;71.36;102152.38;4925803;28;20494;-49
2022/07/15 02:50:41;;;;;;;10.32;3.72;;;;;;;16.21;71.31;102142.75;4944501;28;20070;-53
2022/07/15 02:53:09;;;;;;;8.75;3.33;;;;;;;16.16;71.53;102144.41;4957440;28;20059;-51
2022/07/15 02:55:39;;;;;;;13.93;3.83;;;;;;;16.10;71.93;102150.97;4954331;28;20062;-50
2022/07/15 02:58:07;;;;;;;10.52;3.40;;;;;;;16.08;71.88;102147.69;4953971;29;20067;-51
2022/07/15 03:00:35;;;;;;;11.50;3.80;;;;;;;16.06;72.12;102154.53;4955314;28;20445;-53
2022/07/15 03:03:04;;;;;;;9.43;3.30;;;;;;;16.05;72.17;102159.22;4972273;28;20043;-50
2022/07/15 03:05:35;;;;;;;11.88;3.70;;;;;;;16.03;72.18;102161.41;4954731;28;20047;-50
2022/07/15 03:08:03;;;;;;;11.98;3.80;;;;;;;15.98;72.31;102164.97;4955247;28;20051;-49
2022/07/15 03:10:31;;;;;;;10.77;3.42;;;;;;;15.90;72.75;102168.28;4956976;28;20047;-50
2022/07/15 03:12:59;;;;;;;9.45;3.58;;;;;;;15.82;73.36;102174.28;4974295;28;20400;-49
2022/07/15 03:15:27;;;;;;;11.82;3.92;;;;;;;15.86;72.95;102171.84;4955285;28;20074;-48
2022/07/15 03:17:55;;;;;;;14.32;3.65;;;;;;;15.90;72.66;102170.19;4937806;29;20047;-53
2022/07/15 03:20:25;;;;;;;11.88;3.78;;;;;;;15.91;72.67;102180.09;4947240;28;20085;-50
2022/07/15 03:22:53;;;;;;;10.27;3.42;;;;;;;15.81;73.48;102180.88;4956727;28;20038;-54
2022/07/15 03:25:21;;;;;;;11.05;3.53;;;;;;;15.81;73.50;102185.56;4958860;28;20457;-50
2022/07/15 03:27:48;;;;;;;11.90;3.72;;;;;;;15.79;73.68;102185.81;4943653;28;20471;-50
2022/07/15 03:30:18;;;;;;;12.50;4.10;;;;;;;15.75;73.71;102188.28;4960409;28;20058;-49
2022/07/15 03:32:47;;;;;;;15.15;3.90;;;;;;;15.69;74.24;102194.81;4958781;28;20126;-49
2022/07/15 03:35:16;;;;;;;11.52;3.75;;;;;;;15.70;73.83;102193.75;4970262;28;20097;-54
2022/07/15 03:37:43;;;;;;;13.95;3.78;;;;;;;15.74;73.94;102192.13;4977388;28;20039;-50
2022/07/15 03:40:12;;;;;;;10.07;3.60;;;;;;;15.75;74.00;102198.44;4957072;28;20039;-49
2022/07/15 03:42:39;;;;;;;9.70;3.20;;;;;;;15.76;73.58;102189.94;4954586;28;20126;-49
2022/07/15 03:45:07;;;;;;;11.55;3.90;;;;;;;15.76;73.58;102195.44;4954047;29;20067;-53
2022/07/15 03:47:36;;;;;;;9.68;3.47;;;;;;;15.73;74.00;102190.47;4952147;28;20047;-53
2022/07/15 03:50:08;;;;;;;10.20;3.95;;;;;;;15.74;74.16;102208.59;4960241;28;20397;-51
2022/07/15 03:52:37;;;;;;;10.57;3.78;;;;;;;15.73;74.15;102201.47;4957711;28;20058;-51
2022/07/15 03:55:06;;;;;;;12.05;3.80;;;;;;;15.68;74.57;102204.19;4960047;28;20084;-53
2022/07/15 03:57:34;;;;;;;13.23;3.88;;;;;;;15.69;74.57;102207.75;4958033;28;20070;-52
2022/07/15 04:00:04;;;;;;;13.32;3.75;;;;;;;15.71;74.50;102209.16;4959182;28;20038;-52
2022/07/15 04:02:41;;;;;;;11.48;3.90;;;;;;;15.72;74.79;102216.28;4959999;28;20058;-50
2022/07/15 04:05:14;;;;;;;11.70;4.00;;;;;;;15.74;74.67;102210.53;4972001;28;20571;-52
2022/07/15 04:07:42;;;;;;;13.07;4.18;;;;;;;15.72;74.67;102220.97;4975285;28;20046;-54
2022/07/15 04:10:10;;;;;;;11.75;3.88;;;;;;;15.70;75.15;102218.47;4957299;28;20484;-54
2022/07/15 04:12:37;;;;;;;10.68;3.80;;;;;;;15.66;75.19;102225.59;4950351;28;20046;-50
2022/07/15 04:15:12;;;;;;;11.40;3.67;;;;;;;15.67;75.28;102219.00;4973996;28;20039;-50
2022/07/15 04:17:44;;;;;;;14.30;4.32;;;;;;;15.68;75.31;102220.66;4957028;28;20039;-50
2022/07/15 04:20:12;;;;;;;12.43;4.00;;;;;;;15.68;75.42;102222.56;4958834;28;20097;-53
2022/07/15 04:22:46;;;;;;;9.35;3.72;;;;;;;15.69;75.42;102218.72;4958911;28;20047;-54
2022/07/15 04:25:19;;;;;;;10.82;3.50;;;;;;;15.70;75.32;102218.47;4954267;28;20109;-54
2022/07/15 04:27:48;;;;;;;12.82;4.30;;;;;;;15.75;74.94;102223.16;4959744;28;20046;-52
2022/07/15 04:30:17;;;;;;;9.93;3.65;;;;;;;15.79;74.95;102220.72;4959634;28;20042;-53
2022/07/15 04:32:48;;;;;;;10.27;3.83;;;;;;;15.82;74.52;102220.19;4952871;28;20101;-51
2022/07/15 04:35:17;;;;;;;9.85;3.45;;;;;;;15.80;74.77;102214.94;4953548;28;20063;-51
2022/07/15 04:37:53;;;;;;;12.27;4.20;;;;;;;15.79;75.14;102217.97;4951864;29;20075;-53
2022/07/15 04:40:20;;;;;;;10.30;3.95;;;;;;;15.71;74.97;102228.38;4938395;29;20516;-51
2022/07/15 04:42:48;;;;;;;7.97;3.40;;;;;;;15.62;75.52;102224.47;4952943;29;20040;-51
2022/07/15 04:45:17;;;;;;;12.38;3.70;;;;;;;15.62;75.94;102227.22;4955035;29;20042;-52
2022/07/15 04:47:45;;;;;;;15.18;3.92;;;;;;;15.65;75.75;102223.09;4954355;29;20071;-52
2022/07/15 04:53:06;;;;;;;12.13;3.60;;;;;;;15.60;75.78;102229.41;4940117;29;20044;-52
2022/07/15 04:55:34;;;;;;;12.52;3.80;;;;;;;15.57;75.96;102231.88;4954986;29;20036;-51
2022/07/15 04:58:03;;;;;;;10.68;3.40;;;;;;;15.55;75.87;102226.63;4951338;29;20520;-51
2022/07/15 05:00:32;;;;;;;9.95;2.95;;;;;;;15.59;75.98;102236.00;4953715;29;20043;-50
2022/07/15 05:03:04;;;;;;;11.48;3.10;;;;;;;15.64;75.98;102236.03;4954542;29;20411;-50
2022/07/15 05:05:33;;;;;;;8.43;3.47;;;;;;;15.67;75.86;102226.41;4939077;29;20049;-50
2022/07/15 05:08:02;;;;;;;11.10;3.72;;;;;;;15.71;75.43;102228.38;4955224;29;20043;-51
2022/07/15 05:10:38;;;;;;;12.13;3.60;;;;;;;15.72;75.67;102226.47;4935539;29;20045;-49
2022/07/15 05:13:06;;;;;;;14.52;3.53;;;;;;;15.71;75.89;102233.06;4954848;28;20054;-50
2022/07/15 05:15:34;;;;;;;12.00;3.15;;;;;;;15.75;75.76;102231.41;4950703;29;20500;-47
2022/07/15 05:18:21;;;;;;;12.73;3.47;;;;;;;15.80;75.46;102233.34;4955215;29;20035;-47
2022/07/15 05:20:51;;;;;;;12.55;3.40;;;;;;;15.75;75.45;102234.16;4954772;29;20043;-46
2022/07/15 05:23:19;;;;;;;10.32;3.53;;;;;;;15.68;76.23;102239.91;4953643;29;20387;-48
2022/07/15 05:25:52;;;;;;;8.77;2.88;;;;;;;15.60;76.54;102232.16;4937371;29;20043;-51
2022/07/15 05:28:21;;;;;;;9.82;3.20;;;;;;;15.57;76.71;102232.69;4943529;29;20126;-50
2022/07/15 05:30:50;;;;;;;11.25;3.05;;;;;;;15.60;76.79;102234.91;4951987;29;20553;-49
2022/07/15 05:33:18;;;;;;;10.80;3.15;;;;;;;15.68;76.65;102236.28;4954460;29;20048;-49
2022/07/15 05:35:47;;;;;;;11.27;3.45;;;;;;;15.71;76.33;102236.63;4953030;29;20059;-47
2022/07/15 05:38:23;;;;;;;13.63;3.58;;;;;;;15.76;76.34;102236.66;4934151;29;20487;-47
2022/07/15 05:40:53;;;;;;;10.80;3.08;;;;;;;15.74;76.36;102235.28;4943843;29;20047;-48
2022/07/15 05:43:23;;;;;;;8.93;2.85;;;;;;;15.71;76.51;102235.81;4268422;28;10000720;-46
2022/07/15 05:45:51;;;;;;;9.43;3.90;;;;;;;15.66;76.79;102239.34;4951043;28;20050;-52
2022/07/15 05:48:20;;;;;;;13.88;3.70;;;;;;;15.67;76.91;102234.66;4944683;29;20056;-50
2022/07/15 05:50:52;;;;;;;9.63;3.28;;;;;;;15.73;76.72;102228.97;4950038;29;20046;-50
2022/07/15 05:53:20;;;;;;;14.48;3.13;;;;;;;15.77;76.61;102224.56;4949440;29;20062;-53
2022/07/15 05:55:48;;;;;;;11.07;3.20;;;;;;;15.76;76.44;102228.41;4935145;29;20035;-49
2022/07/15 05:58:19;;;;;;;9.88;2.80;;;;;;;15.80;76.15;102233.34;4949788;29;20040;-50
2022/07/15 06:00:47;;;;;;;10.20;3.13;;;;;;;15.76;75.87;102233.91;4945476;29;20107;-50
2022/07/15 06:03:15;;;;;;;10.55;2.90;;;;;;;15.77;75.17;102231.97;4943701;29;20039;-47
2022/07/15 06:05:45;;;;;;;7.10;2.30;;;;;;;15.76;74.32;102228.41;4944587;29;20119;-48
2022/07/15 06:08:13;;;;;;;7.78;2.70;;;;;;;15.81;75.23;102224.84;4944854;29;20122;-51
2022/07/15 06:10:44;;;;;;;10.77;3.15;;;;;;;15.86;74.84;102229.56;4938069;29;20672;-49
2022/07/15 06:13:12;;;;;;;9.23;2.97;;;;;;;15.94;74.09;102229.00;4940458;29;20040;-49
2022/07/15 06:15:41;;;;;;;7.88;2.75;;;;;;;16.02;73.69;102223.00;4946154;29;20050;-53
2022/07/15 06:18:14;;;;;;;7.43;2.72;;;;;;;16.02;73.83;102225.75;4924700;29;20043;-47
2022/07/15 06:20:43;;;;;;;10.63;2.95;;;;;;;16.01;73.63;102218.59;4939815;29;20118;-50
2022/07/15 06:23:11;;;;;;;10.52;3.05;;;;;;;16.01;74.03;102221.34;4947836;29;20059;-48
2022/07/15 06:25:39;;;;;;;10.38;3.00;;;;;;;16.00;73.39;102219.69;4932674;29;20405;-46
2022/07/15 06:28:09;;;;;;;13.65;3.13;;;;;;;16.04;73.40;102226.28;4940905;29;20059;-54
2022/07/15 06:30:36;;;;;;;10.63;3.47;;;;;;;16.08;73.65;102223.84;4951628;29;20073;-53
2022/07/15 06:33:06;;;;;;;10.13;3.83;;;;;;;16.12;73.25;102228.53;4949415;29;20450;-52
2022/07/15 06:35:33;;;;;;;11.52;3.38;;;;;;;16.12;73.37;102224.97;4945790;29;20060;-53
2022/07/15 06:38:01;;;;;;;9.73;2.53;;;;;;;16.13;73.14;102224.69;4949813;29;20047;-51
2022/07/15 06:40:29;;;;;;;8.10;2.67;;;;;;;16.19;72.98;102226.34;4952930;29;20054;-51
2022/07/15 06:42:57;;;;;;;13.48;3.10;;;;;;;16.27;72.50;102221.41;4937912;29;20049;-51
2022/07/15 06:45:42;;;;;;;12.65;3.03;;;;;;;16.27;71.85;102221.41;4934711;29;20445;-49
2022/07/15 06:48:10;;;;;;;12.40;2.95;;;;;;;16.24;71.58;102227.47;4949616;29;20098;-50
2022/07/15 06:50:38;;;;;;;13.73;3.38;;;;;;;16.22;71.85;102229.66;4953582;28;20063;-50
2022/07/15 06:53:06;;;;;;;9.48;2.60;;;;;;;16.26;71.98;102225.25;4950046;29;20044;-50
2022/07/15 06:55:34;;;;;;;7.88;2.53;;;;;;;16.34;71.75;102230.22;4948920;29;20062;-51
2022/07/15 06:58:01;;;;;;;10.38;2.67;;;;;;;16.37;70.95;102235.19;4952077;29;20040;-48
2022/07/15 07:00:29;;;;;;;7.65;2.60;;;;;;;16.43;70.65;102231.34;4950240;29;20118;-50
2022/07/15 07:02:57;;;;;;;10.65;2.70;;;;;;;16.44;70.21;102233.00;4935388;29;20039;-47
2022/07/15 07:05:25;;;;;;;9.98;3.13;;;;;;;16.40;69.75;102227.22;4953466;29;20130;-49
2022/07/15 07:07:53;;;;;;;11.10;2.72;;;;;;;16.39;69.93;102230.25;4953027;29;20066;-50
2022/07/15 07:10:20;;;;;;;16.38;3.60;;;;;;;16.40;69.67;102229.13;4953414;29;20051;-50
2022/07/15 07:12:52;;;;;;;12.65;2.65;;;;;;;16.40;68.43;102237.38;4933208;29;20419;-49
2022/07/15 07:15:21;;;;;;;11.27;2.75;;;;;;;16.38;69.22;102223.91;4948210;29;20483;-51
2022/07/15 07:17:49;;;;;;;8.35;2.60;;;;;;;16.43;69.14;102230.50;4954339;28;20055;-54
2022/07/15 07:20:17;;;;;;;11.27;3.08;;;;;;;16.46;69.63;102230.81;4953146;29;20414;-48
2022/07/15 07:22:44;;;;;;;9.85;2.63;;;;;;;16.51;68.83;102239.06;4944235;29;20036;-50
2022/07/15 07:25:12;;;;;;;8.63;2.67;;;;;;;16.58;68.19;102239.63;4951804;29;20059;-50
2022/07/15 07:27:39;;;;;;;9.50;2.60;;;;;;;16.65;67.96;102239.34;4944759;29;20043;-48
2022/07/15 07:30:08;;;;;;;12.10;3.25;;;;;;;16.65;69.33;102233.84;4954490;28;20042;-50
2022/07/15 07:32:35;;;;;;;11.15;2.88;;;;;;;16.64;69.38;102237.69;4952900;28;20073;-49
2022/07/15 07:35:07;;;;;;;11.68;3.20;;;;;;;16.65;70.14;102244.03;4964324;28;20074;-48
2022/07/15 07:37:37;;;;;;;11.13;3.28;;;;;;;16.69;70.47;102243.22;4973693;28;20043;-49
2022/07/15 07:40:08;;;;;;;9.48;2.70;;;;;;;16.74;69.51;102245.97;4969864;28;20057;-50
2022/07/15 07:42:38;;;;;;;10.85;3.10;;;;;;;16.76;68.89;102243.78;4967693;28;20047;-48
2022/07/15 07:45:06;;;;;;;17.10;3.63;;;;;;;16.76;69.64;102241.00;4972334;28;20045;-48
2022/07/15 07:47:40;;;;;;;12.98;3.28;;;;;;;16.79;68.89;102247.94;4954585;28;20497;-52
2022/07/15 07:50:09;;;;;;;13.07;2.90;;;;;;;16.83;67.76;102243.50;4972697;28;20039;-50
2022/07/15 07:52:36;;;;;;;13.73;3.28;;;;;;;16.83;66.71;102251.75;4954833;28;20109;-51
2022/07/15 07:55:04;;;;;;;11.23;2.88;;;;;;;16.80;67.09;102253.13;4971629;28;20043;-48
2022/07/15 07:57:32;;;;;;;9.18;2.58;;;;;;;16.76;67.16;102251.19;4971261;28;20441;-49
2022/07/15 08:00:00;;;;;;;10.82;2.92;;;;;;;16.75;67.85;102257.78;4973229;28;20039;-49
2022/07/15 08:02:27;;;;;;;10.30;2.75;;;;;;;16.74;66.68;102261.63;4970680;28;20160;-50
2022/07/15 08:04:55;;;;;;;12.27;3.05;;;;;;;16.68;66.03;102260.00;4972172;28;20093;-49
2022/07/15 08:07:23;;;;;;;8.82;2.90;;;;;;;16.70;66.04;102257.78;4969096;28;20035;-49
2022/07/15 08:09:51;;;;;;;12.02;2.55;;;;;;;16.74;66.06;102250.63;4974369;28;20454;-48
2022/07/15 08:12:18;;;;;;;8.75;2.92;;;;;;;16.77;64.95;102253.66;4967568;28;20035;-50
2022/07/15 08:14:46;;;;;;;12.95;2.80;;;;;;;16.77;64.89;102248.16;4975881;28;20070;-48
2022/07/15 08:17:13;;;;;;;11.48;2.88;;;;;;;16.77;65.22;102252.84;4940295;28;20042;-47
2022/07/15 08:19:41;;;;;;;10.25;2.75;;;;;;;16.80;65.05;102246.81;4958844;28;20062;-50
2022/07/15 08:22:09;;;;;;;10.00;2.85;;;;;;;16.84;63.50;102250.69;4974134;28;20584;-49
2022/07/15 08:24:42;;;;;;;9.70;3.08;;;;;;;16.91;63.23;102248.47;4959489;28;20446;-47
2022/07/15 08:27:09;;;;;;;8.45;2.50;;;;;;;16.99;63.45;102253.41;4970873;28;20453;-51
2022/07/15 08:29:38;;;;;;;9.63;2.45;;;;;;;17.06;62.73;102255.06;4976249;28;20061;-49
2022/07/15 08:32:05;;;;;;;10.68;2.50;;;;;;;17.08;61.97;102252.84;4974902;28;20073;-53
2022/07/15 08:34:33;;;;;;;7.95;2.00;;;;;;;17.08;62.03;102261.09;4973891;28;20058;-50
2022/07/15 08:37:00;;;;;;;8.73;2.53;;;;;;;17.11;61.99;102261.38;4974498;28;20050;-52
2022/07/15 08:39:28;;;;;;;9.23;2.28;;;;;;;17.22;61.57;102253.94;4971008;28;20505;-49
2022/07/15 08:41:56;;;;;;;9.63;3.05;;;;;;;17.28;62.08;102258.34;4959145;28;20074;-52
2022/07/15 08:44:24;;;;;;;12.98;2.95;;;;;;;17.29;61.46;102259.97;4953102;28;20375;-50
2022/07/15 08:46:54;;;;;;;10.63;2.50;;;;;;;17.28;60.77;102266.59;4958216;28;20046;-49
2022/07/15 08:49:23;;;;;;;10.45;2.65;;;;;;;17.23;59.92;102255.59;4976278;28;20174;-50
2022/07/15 08:51:51;;;;;;;8.90;2.55;;;;;;;17.22;60.13;102248.41;4945813;28;20053;-47
2022/07/15 08:54:25;;;;;;;8.48;2.28;;;;;;;17.24;59.51;102251.72;4943670;28;20505;-47
2022/07/15 08:56:52;;;;;;;11.57;2.63;;;;;;;17.28;58.44;102247.31;4952334;28;20098;-48
2022/07/15 08:59:20;;;;;;;11.43;2.78;;;;;;;17.35;59.06;102256.13;4973054;28;20410;-48
2022/07/15 09:01:49;;;;;;;9.55;3.40;;;;;;;17.43;58.76;102257.47;4974257;28;20043;-46
2022/07/15 09:04:17;;;;;;;8.90;2.55;;;;;;;17.49;59.89;102239.03;4975484;28;20081;-48
2022/07/15 09:06:47;;;;;;;11.93;2.53;;;;;;;17.54;60.34;102239.00;4958875;28;20051;-46
2022/07/15 09:09:28;;;;;;;13.27;2.70;;;;;;;17.61;59.77;102239.53;4951752;29;20039;-49
2022/07/15 09:12:07;;;;;;;9.73;2.75;;;;;;;17.62;59.76;102243.91;4970415;28;20057;-49
2022/07/15 09:14:44;;;;;;;8.68;2.58;;;;;;;17.66;59.40;102247.78;4967057;28;20066;-50
2022/07/15 09:17:13;;;;;;;10.95;2.28;;;;;;;17.69;59.60;102236.19;4948469;28;20042;-46
2022/07/15 09:19:58;;;;;;;5.95;1.98;;;;;;;17.72;57.74;102232.84;4973697;28;20421;-49
2022/07/15 09:22:28;;;;;;;7.13;2.17;;;;;;;17.78;56.88;102234.50;4965345;28;20478;-52
2022/07/15 09:25:07;;;;;;;8.10;2.17;;;;;;;17.78;55.86;102234.50;4975095;28;20042;-49
2022/07/15 09:27:38;;;;;;;11.27;2.63;;;;;;;17.83;57.63;102236.44;4975555;28;20509;-51
2022/07/15 09:36:11;;;;;;;10.25;2.38;;;;;;;17.88;56.83;102240.00;4975051;28;20066;-50
2022/07/15 09:38:46;;;;;;;12.65;2.50;;;;;;;17.92;56.87;102231.13;4956987;28;20047;-50
2022/07/15 09:41:39;;;;;;;11.93;2.80;;;;;;;17.95;57.57;102230.59;4971274;28;20062;-50
2022/07/15 09:44:18;;;;;;;6.50;2.00;;;;;;;17.97;55.11;102244.94;4975105;28;20051;-49
2022/07/15 09:46:57;;;;;;;7.78;2.20;;;;;;;17.98;54.67;102241.06;4952289;29;20124;-47
2022/07/15 09:49:25;;;;;;;6.78;2.08;;;;;;;18.08;53.99;102232.72;4969939;28;20046;-46
2022/07/15 09:51:57;;;;;;;6.75;2.13;;;;;;;18.22;51.51;102236.50;4973992;28;20516;-50
2022/07/15 09:54:34;;;;;;;7.90;2.17;;;;;;;18.26;52.47;102228.50;4974826;28;20035;-48
2022/07/15 09:57:08;;;;;;;8.85;2.45;;;;;;;18.24;49.94;102233.47;4956868;28;20043;-49
2022/07/15 09:59:37;;;;;;;5.95;1.92;;;;;;;18.22;52.23;102233.75;4953980;28;20060;-45
2022/07/15 10:02:08;;;;;;;7.78;2.42;;;;;;;18.24;53.79;102225.19;4970938;28;20054;-43
2022/07/15 10:04:37;;;;;;;7.28;2.03;;;;;;;18.25;53.23;102230.41;4950134;28;20042;-47
2022/07/15 10:07:06;;;;;;;8.63;2.67;;;;;;;18.28;53.81;102229.84;4973186;28;20145;-48
2022/07/15 10:09:55;;;;;;;8.98;2.35;;;;;;;18.25;52.78;102226.81;4968808;28;20049;-51
2022/07/15 10:12:54;;;;;;;7.70;2.70;;;;;;;18.21;53.42;102229.34;4954878;28;20130;-48
2022/07/15 10:15:49;;;;;;;5.18;1.85;;;;;;;18.26;53.10;102223.78;4941257;28;20061;-49
2022/07/15 10:18:29;;;;;;;6.50;2.03;;;;;;;18.36;51.22;102222.06;4972162;28;20410;-53
2022/07/15 10:21:02;;;;;;;7.03;1.77;;;;;;;18.42;49.83;102215.38;4965609;28;20077;-49
2022/07/15 10:24:08;;;;;;;6.20;1.67;;;;;;;18.48;50.27;102206.78;4971419;28;20485;-50
2022/07/15 10:27:02;;;;;;;6.70;1.83;;;;;;;18.55;49.95;102212.00;4957563;28;20387;-51
2022/07/15 10:29:31;;;;;;;20.38;7.75;;;;;;;18.62;50.85;102212.50;4973236;28;20050;-51
2022/07/15 10:32:00;;;;;;;3.33;1.58;;;;;;;18.68;48.95;102205.78;4945370;29;20043;-52
2022/07/15 10:34:38;;;;;;;6.38;1.88;;;;;;;18.77;48.66;102205.22;4947398;28;20494;-52
2022/07/15 10:37:10;;;;;;;14.15;5.68;;;;;;;18.83;48.22;102199.38;4949068;29;20454;-53
2022/07/15 10:39:51;;;;;;;12.38;2.35;;;;;;;18.92;48.93;102197.59;4952619;28;20113;-52
2022/07/15 10:42:19;;;;;;;5.63;1.77;;;;;;;18.99;49.89;102202.78;4971620;28;20042;-46
2022/07/15 10:45:02;;;;;;;5.20;1.80;;;;;;;19.07;49.36;102202.19;4939966;28;20574;-53
2022/07/15 10:47:30;;;;;;;9.45;2.28;;;;;;;19.00;50.41;102204.47;4964009;28;20101;-51
2022/07/15 10:49:58;;;;;;;7.68;2.28;;;;;;;18.98;50.98;102200.31;4972780;28;20038;-53
2022/07/15 10:52:32;;;;;;;9.00;2.30;;;;;;;18.99;51.69;102188.97;4953893;28;20043;-51
2022/07/15 10:55:04;;;;;;;6.43;1.88;;;;;;;19.03;49.70;102187.28;4953974;28;20118;-46
2022/07/15 10:57:44;;;;;;;6.13;2.10;;;;;;;19.08;49.01;102192.75;4955867;28;20069;-48
2022/07/15 11:00:20;;;;;;;4.38;1.77;;;;;;;19.13;48.33;102191.88;4966447;28;20470;-54
2022/07/15 11:03:18;;;;;;;3.58;1.40;;;;;;;19.18;47.63;102183.53;4970292;28;20047;-49
2022/07/15 11:05:51;;;;;;;6.05;1.88;;;;;;;19.23;48.43;102179.91;4969374;28;20046;-51
2022/07/15 11:08:43;;;;;;;7.93;2.10;;;;;;;19.23;48.15;102169.66;4955952;28;20568;-50
2022/07/15 11:11:14;;;;;;;19.83;7.28;;;;;;;19.27;49.51;102175.44;4957739;28;20141;-50
2022/07/15 11:13:47;;;;;;;7.45;1.98;;;;;;;19.25;48.96;102163.84;4973481;28;20418;-48
2022/07/15 11:16:20;;;;;;;6.35;1.85;;;;;;;19.20;49.03;102172.22;4284012;28;9999989;-49
2022/07/15 11:18:52;;;;;;;5.75;1.65;;;;;;;19.14;49.84;102180.53;4950997;28;20449;-51
2022/07/15 11:21:21;;;;;;;5.35;1.80;;;;;;;19.16;50.14;102181.06;4968831;28;20044;-49
2022/07/15 11:23:50;;;;;;;3.78;1.60;;;;;;;19.28;49.36;102177.06;4950052;29;20051;-53
2022/07/15 11:26:18;;;;;;;4.78;1.73;;;;;;;19.35;47.91;102169.25;4968916;28;20404;-49
2022/07/15 11:28:54;;;;;;;5.03;1.88;;;;;;;19.42;47.48;102172.47;4943782;29;20039;-53
2022/07/15 11:31:23;;;;;;;8.20;2.03;;;;;;;19.47;46.68;102175.19;4931274;29;20058;-49
2022/07/15 11:33:54;;;;;;;6.03;2.15;;;;;;;19.46;46.62;102161.66;4962195;28;20047;-49
2022/07/15 11:36:23;;;;;;;3.03;1.27;;;;;;;19.45;47.16;102162.78;4968019;28;20053;-49
2022/07/15 11:38:51;;;;;;;6.05;2.10;;;;;;;19.49;47.51;102166.59;4932480;29;20680;-51
2022/07/15 11:46:55;;;;;;;5.40;1.63;;;;;;;19.64;47.27;102152.56;4955807;28;20383;-49
2022/07/15 11:49:33;;;;;;;4.93;1.88;;;;;;;19.69;46.67;102141.47;4949897;28;20051;-49